Time;durP1;ratioP1;P1;durP2;ratioP2;P2;SDS_P1;SDS_P2;PMS_P1;PMS_P2;Temp;Humidity;BMP_temperature;BMP_pressure;BME280_temperature;BME280_humidity;BME280_pressure;Samples;Min_cycle;Max_cycle;Signal;HPM_P1;HPM_P2
2022/01/30 00:00:50;;;;;;;16.38;2.00;;;;;;;5.85;100.00;100693.31;5189523;28;20021;-81
2022/01/30 00:03:20;;;;;;;16.27;2.00;;;;;;;5.86;100.00;100687.25;5186856;28;20041;-80
2022/01/30 00:05:51;;;;;;;16.52;2.40;;;;;;;5.95;100.00;100694.91;5190713;28;20028;-81
2022/01/30 00:08:21;;;;;;;13.20;2.25;;;;;;;6.08;100.00;100683.47;5188143;28;20040;-80
2022/01/30 00:10:58;;;;;;;21.67;2.60;;;;;;;6.13;100.00;100684.25;5189837;28;20029;-81
2022/01/30 00:13:29;;;;;;;20.15;2.70;;;;;;;6.22;100.00;100694.50;5189584;28;20064;-80
2022/01/30 00:16:04;;;;;;;21.88;3.13;;;;;;;6.25;100.00;100705.66;5190012;28;20026;-80
2022/01/30 00:21:32;;;;;;;14.90;2.10;;;;;;;6.34;98.39;100705.53;5186934;28;20399;-80
2022/01/30 00:26:35;;;;;;;14.32;2.35;;;;;;;6.37;97.14;100689.88;5189418;28;20113;-78
2022/01/30 00:29:07;;;;;;;18.52;2.60;;;;;;;6.27;98.07;100687.47;5190476;28;20037;-78
2022/01/30 00:31:38;;;;;;;12.88;1.90;;;;;;;6.28;98.71;100699.56;5188417;28;20062;-78
2022/01/30 00:34:09;;;;;;;16.63;2.90;;;;;;;6.13;100.00;100685.13;5190964;28;20029;-78
2022/01/30 00:36:39;;;;;;;18.63;2.80;;;;;;;5.84;100.00;100692.47;5188078;28;20030;-78
2022/01/30 00:39:09;;;;;;;16.60;3.08;;;;;;;5.72;100.00;100692.59;5191457;28;20040;-78
2022/01/30 00:41:39;;;;;;;17.13;2.47;;;;;;;5.49;100.00;100678.25;5184538;28;20108;-78
2022/01/30 00:44:10;;;;;;;16.40;2.72;;;;;;;5.51;100.00;100669.59;5186034;28;20034;-78
2022/01/30 00:46:41;;;;;;;19.02;2.72;;;;;;;5.45;100.00;100686.94;5191262;28;20103;-78
2022/01/30 00:49:12;;;;;;;18.60;2.47;;;;;;;5.58;100.00;100678.13;5188633;28;20037;-78
2022/01/30 00:51:43;;;;;;;16.65;2.53;;;;;;;5.61;100.00;100665.13;5193867;28;20024;-78
2022/01/30 00:54:13;;;;;;;14.88;2.40;;;;;;;5.71;100.00;100695.25;5190889;28;20488;-78
2022/01/30 00:56:43;;;;;;;13.98;2.70;;;;;;;5.80;100.00;100692.53;5195228;28;20080;-78
2022/01/30 00:59:14;;;;;;;15.63;2.42;;;;;;;5.81;100.00;100676.97;5191292;28;20061;-78
2022/01/30 01:01:44;;;;;;;16.13;2.25;;;;;;;5.88;100.00;100695.88;5195005;28;20025;-78
2022/01/30 01:04:14;;;;;;;13.65;1.92;;;;;;;5.90;100.00;100681.16;5186976;28;20031;-77
2022/01/30 01:06:49;;;;;;;20.48;2.65;;;;;;;5.94;100.00;100688.00;5194494;28;20122;-78
2022/01/30 01:09:23;;;;;;;12.77;2.30;;;;;;;5.90;100.00;100687.19;5190739;28;20026;-78
2022/01/30 01:25:49;;;;;;;21.17;2.22;;;;;;;5.95;97.21;100707.88;5187748;28;20060;-78
2022/01/30 01:28:19;;;;;;;16.80;2.65;;;;;;;6.01;96.63;100736.31;5193483;28;20056;-78
2022/01/30 01:30:50;;;;;;;13.80;1.77;;;;;;;6.07;97.40;100731.03;5190901;28;20034;-78
2022/01/30 01:33:24;;;;;;;12.90;2.28;;;;;;;6.11;96.50;100735.31;5193501;28;20065;-78
2022/01/30 01:35:54;;;;;;;17.05;2.30;;;;;;;6.05;97.27;100728.47;5191434;28;20022;-78
2022/01/30 01:38:25;;;;;;;13.70;2.38;;;;;;;5.96;97.33;100738.13;5192891;28;20087;-78
2022/01/30 01:40:55;;;;;;;12.00;2.00;;;;;;;5.82;98.63;100733.13;5188650;28;20529;-78
2022/01/30 01:43:27;;;;;;;14.05;1.85;;;;;;;5.77;99.40;100741.81;5188951;28;20064;-78
2022/01/30 01:45:59;;;;;;;13.80;1.98;;;;;;;5.66;99.74;100734.19;5192363;28;20017;-78
2022/01/30 01:48:34;;;;;;;13.45;1.92;;;;;;;5.53;100.00;100706.69;5190712;28;20414;-78
2022/01/30 01:51:15;;;;;;;13.27;1.92;;;;;;;5.47;100.00;100711.09;5188792;28;20121;-78
2022/01/30 01:53:47;;;;;;;17.38;2.08;;;;;;;5.38;100.00;100712.06;5185651;28;20033;-78
2022/01/30 01:56:19;;;;;;;13.07;1.88;;;;;;;5.42;100.00;100692.19;5183885;28;20029;-78
2022/01/30 01:58:49;;;;;;;18.80;2.67;;;;;;;5.43;100.00;100702.50;5189932;28;20096;-78
2022/01/30 02:01:20;;;;;;;22.40;2.97;;;;;;;5.48;100.00;100687.78;5192600;28;20033;-78
2022/01/30 02:03:51;;;;;;;13.15;2.33;;;;;;;5.55;100.00;100701.50;5190320;28;20480;-78
2022/01/30 02:06:23;;;;;;;20.42;2.72;;;;;;;5.58;99.06;100702.31;5192937;28;20100;-78
2022/01/30 02:09:01;;;;;;;20.52;3.13;;;;;;;5.64;98.03;100703.97;5190059;28;20037;-78
2022/01/30 02:11:41;;;;;;;18.83;2.58;;;;;;;5.65;98.44;100705.69;5188420;28;20095;-78
2022/01/30 02:14:26;;;;;;;14.00;2.33;;;;;;;5.67;98.02;100697.00;5187977;28;20034;-78
2022/01/30 02:25:42;;;;;;;19.42;2.50;;;;;;;5.75;95.04;100691.72;5187831;28;20030;-78
2022/01/30 02:28:16;;;;;;;14.73;2.47;;;;;;;5.76;93.77;100688.25;5189441;28;20064;-78
2022/01/30 02:30:55;;;;;;;18.10;2.28;;;;;;;5.82;92.95;100698.56;5185877;28;20117;-78
2022/01/30 02:33:26;;;;;;;20.15;2.83;;;;;;;5.81;92.57;100691.66;5191299;28;20496;-78
2022/01/30 02:35:56;;;;;;;24.08;2.65;;;;;;;5.87;92.25;100713.16;5190805;28;20061;-78
2022/01/30 02:38:27;;;;;;;17.27;2.47;;;;;;;5.84;92.53;100683.81;5190984;28;20075;-77
2022/01/30 02:40:58;;;;;;;16.20;2.47;;;;;;;5.86;91.68;100674.28;5187689;28;20026;-78
2022/01/30 02:43:34;;;;;;;12.02;2.38;;;;;;;5.87;92.19;100686.38;5188240;28;20029;-78
2022/01/30 02:46:10;;;;;;;18.20;2.63;;;;;;;5.82;93.22;100680.41;5190224;28;20542;-78
2022/01/30 02:48:51;;;;;;;14.27;2.00;;;;;;;5.85;93.63;100690.72;5189874;28;20479;-78
2022/01/30 02:51:23;;;;;;;13.63;2.05;;;;;;;5.83;93.34;100689.88;5185179;28;20044;-78
2022/01/30 02:54:03;;;;;;;14.70;2.05;;;;;;;5.81;93.59;100695.13;5191162;28;20105;-78
2022/01/30 02:56:35;;;;;;;9.55;1.70;;;;;;;5.88;93.12;100706.25;5191189;28;20045;-78
2022/01/30 02:59:06;;;;;;;19.60;2.67;;;;;;;5.96;92.77;100704.41;5189959;28;20033;-78
2022/01/30 03:01:37;;;;;;;17.27;2.22;;;;;;;5.98;92.48;100710.41;5191472;28;20394;-78
2022/01/30 03:04:08;;;;;;;10.70;2.22;;;;;;;5.97;92.97;100706.09;5189518;28;20033;-78
2022/01/30 03:06:39;;;;;;;18.95;2.22;;;;;;;5.96;94.19;100713.06;5191837;28;20033;-78
2022/01/30 03:09:10;;;;;;;23.15;2.70;;;;;;;5.91;94.09;100701.88;5179277;28;20069;-78
2022/01/30 03:14:13;;;;;;;17.00;2.13;;;;;;;5.79;96.33;100690.81;5234657;23;20120;-87
2022/01/30 03:16:43;;;;;;;13.73;2.20;;;;;;;5.80;97.27;100708.97;5201037;28;20562;-87
2022/01/30 03:19:13;;;;;;;18.00;2.25;;;;;;;5.73;97.19;100693.47;5200586;28;20108;-87
2022/01/30 03:21:44;;;;;;;19.85;2.85;;;;;;;5.73;96.86;100701.25;5199890;28;20242;-87
2022/01/30 03:24:14;;;;;;;12.57;2.30;;;;;;;5.77;96.10;100700.34;5196023;28;20044;-87
2022/01/30 03:26:44;;;;;;;23.85;2.65;;;;;;;5.82;95.46;100714.97;5217061;22;20041;-80
2022/01/30 03:29:15;;;;;;;16.23;2.38;;;;;;;5.86;94.52;100703.69;5206070;28;20022;-79
2022/01/30 03:31:45;;;;;;;16.13;2.70;;;;;;;5.90;93.71;100712.28;5196840;28;20025;-80
2022/01/30 03:34:16;;;;;;;14.45;2.47;;;;;;;5.91;94.27;100724.38;5188422;28;20052;-80
2022/01/30 03:36:46;;;;;;;16.83;2.28;;;;;;;5.92;94.53;100713.09;5192716;28;20037;-80
2022/01/30 03:39:17;;;;;;;17.13;2.70;;;;;;;5.85;94.62;100716.66;5196797;28;20021;-79
2022/01/30 03:41:47;;;;;;;16.38;2.28;;;;;;;5.86;94.77;100726.16;5204857;23;20047;-80
2022/01/30 03:44:17;;;;;;;14.70;2.03;;;;;;;5.88;95.17;100719.22;5200308;28;20029;-80
2022/01/30 03:46:48;;;;;;;15.95;2.10;;;;;;;5.84;94.69;100723.59;5199908;28;20074;-80
2022/01/30 03:49:18;;;;;;;15.48;2.55;;;;;;;5.83;95.40;100701.13;5200182;28;20029;-81
2022/01/30 03:51:48;;;;;;;9.35;1.90;;;;;;;5.77;95.71;100721.06;5199920;28;20021;-82
2022/01/30 03:54:18;;;;;;;12.52;1.75;;;;;;;5.73;96.46;100734.97;5200496;28;20209;-80
2022/01/30 03:56:49;;;;;;;14.35;2.22;;;;;;;5.65;97.10;100721.22;5200249;28;20025;-82
2022/01/30 03:59:19;;;;;;;12.13;1.95;;;;;;;5.58;97.96;100736.00;5200286;28;20490;-80
2022/01/30 04:01:49;;;;;;;12.25;2.30;;;;;;;5.56;98.33;100731.72;5199785;28;20094;-83
2022/01/30 04:04:19;;;;;;;20.00;2.63;;;;;;;5.65;98.68;100726.41;5199473;28;20033;-80
2022/01/30 04:06:50;;;;;;;16.50;2.47;;;;;;;5.61;98.59;100715.22;5198151;28;20029;-80
2022/01/30 04:09:20;;;;;;;15.38;2.13;;;;;;;5.65;97.62;100731.59;5200164;28;20035;-80
2022/01/30 04:11:51;;;;;;;14.68;2.00;;;;;;;5.56;98.29;100718.78;5188511;28;20030;-81
2022/01/30 04:14:22;;;;;;;14.63;2.30;;;;;;;5.55;97.64;100719.66;5199636;28;20374;-80
2022/01/30 04:16:52;;;;;;;21.30;2.35;;;;;;;5.55;96.67;100730.03;5199531;28;20032;-80
2022/01/30 04:19:22;;;;;;;20.48;2.30;;;;;;;5.54;96.47;100708.41;5187783;28;20030;-80
2022/01/30 04:21:53;;;;;;;20.42;2.38;;;;;;;5.57;96.11;100728.25;5199681;28;20025;-80
2022/01/30 04:24:23;;;;;;;19.98;2.30;;;;;;;5.58;96.41;100715.28;5204050;28;20033;-80
2022/01/30 04:26:54;;;;;;;15.15;2.08;;;;;;;5.61;95.78;100715.22;5194089;28;20116;-80
2022/01/30 04:29:24;;;;;;;15.55;2.28;;;;;;;5.69;95.99;100715.13;5204143;28;20549;-80
2022/01/30 04:31:55;;;;;;;18.15;2.38;;;;;;;5.70;95.47;100727.19;5204087;28;20051;-81
2022/01/30 04:34:27;;;;;;;16.92;2.67;;;;;;;5.71;94.35;100722.00;5203857;28;20025;-82
2022/01/30 04:40:04;;;;;;;20.45;2.65;;;;;;;5.77;93.52;100731.44;5206019;28;20032;-82
2022/01/30 04:54:23;;;;;;;19.92;2.85;;;;;;;5.77;92.77;100749.59;5203438;28;20036;-82
2022/01/30 05:09:46;;;;;;;18.10;2.97;;;;;;;5.73;93.31;100779.03;5203367;28;20093;-82
2022/01/30 05:12:17;;;;;;;19.20;2.67;;;;;;;5.70;93.32;100777.34;5203007;28;20493;-80
2022/01/30 05:14:47;;;;;;;14.65;2.05;;;;;;;5.68;93.68;100798.97;5202059;28;20491;-82
2022/01/30 05:17:18;;;;;;;17.65;2.42;;;;;;;5.65;94.14;100817.16;5202499;28;20446;-81
2022/01/30 05:19:48;;;;;;;21.25;2.65;;;;;;;5.66;92.59;100813.69;5202325;28;20028;-82
2022/01/30 05:22:19;;;;;;;18.38;2.70;;;;;;;5.67;92.31;100808.50;5202831;28;20112;-80
2022/01/30 05:24:49;;;;;;;18.50;2.75;;;;;;;5.66;92.03;100821.47;5202066;28;20017;-82
2022/01/30 05:27:21;;;;;;;15.93;2.85;;;;;;;5.69;92.17;100813.63;5202431;28;20065;-82
2022/01/30 05:29:51;;;;;;;20.95;3.05;;;;;;;5.72;91.18;100842.16;5202776;28;20379;-80
2022/01/30 05:32:22;;;;;;;15.40;3.35;;;;;;;5.68;91.34;100833.53;5202841;28;20033;-83
2022/01/30 05:34:54;;;;;;;17.23;2.90;;;;;;;5.67;92.50;100826.63;5201195;28;20028;-83
2022/01/30 05:37:25;;;;;;;23.58;3.17;;;;;;;5.62;92.49;100836.22;5202923;28;20134;-84
2022/01/30 05:39:55;;;;;;;20.48;3.28;;;;;;;5.54;93.07;100822.47;5202557;28;20057;-80
2022/01/30 05:42:28;;;;;;;19.92;3.00;;;;;;;5.48;93.00;100822.53;5201744;28;20106;-80
2022/01/30 05:45:17;;;;;;;17.92;2.65;;;;;;;5.48;93.49;100808.72;5202546;28;20461;-81
2022/01/30 05:47:54;;;;;;;17.77;2.60;;;;;;;5.44;93.18;100801.84;5187533;28;20041;-80
2022/01/30 05:50:25;;;;;;;27.77;3.22;;;;;;;5.42;93.03;100824.34;5202770;28;20025;-81
2022/01/30 05:52:56;;;;;;;21.70;3.63;;;;;;;5.43;92.69;100839.84;5202746;28;20041;-81
2022/01/30 05:55:26;;;;;;;21.75;3.35;;;;;;;5.40;93.33;100834.72;5202685;28;20482;-81
2022/01/30 05:57:58;;;;;;;20.67;3.58;;;;;;;5.38;93.41;100825.25;5202071;28;20066;-82
2022/01/30 06:00:28;;;;;;;20.45;2.80;;;;;;;5.38;93.49;100822.66;5202751;28;20056;-80
2022/01/30 06:02:58;;;;;;;14.88;2.90;;;;;;;5.31;94.67;100831.34;5202199;28;20063;-82
2022/01/30 06:05:29;;;;;;;23.52;3.17;;;;;;;5.24;95.44;100810.72;5202185;28;20052;-84
2022/01/30 06:08:09;;;;;;;20.23;3.35;;;;;;;5.14;96.82;100830.66;5202345;28;20436;-81
2022/01/30 06:10:39;;;;;;;14.23;3.00;;;;;;;5.12;97.24;100853.13;5202260;28;20032;-81
2022/01/30 06:13:10;;;;;;;23.08;2.97;;;;;;;5.08;97.98;100851.47;5201645;28;20025;-83
2022/01/30 06:15:40;;;;;;;28.55;3.65;;;;;;;5.01;97.84;100851.53;5202036;28;20025;-80
2022/01/30 06:18:10;;;;;;;13.55;2.70;;;;;;;5.00;98.19;100852.41;5202122;28;20021;-80
2022/01/30 06:20:41;;;;;;;11.55;2.05;;;;;;;4.99;97.57;100841.16;5201722;28;20036;-81
2022/01/30 06:23:11;;;;;;;22.33;3.13;;;;;;;4.97;96.55;100842.91;5201576;28;20022;-83
2022/01/30 06:25:41;;;;;;;23.08;2.90;;;;;;;4.97;97.17;100842.91;5202044;28;20056;-80
2022/01/30 06:28:12;;;;;;;19.88;2.90;;;;;;;4.90;96.10;100830.91;5201898;28;20080;-82
2022/01/30 06:30:42;;;;;;;21.25;3.22;;;;;;;4.91;95.67;100835.22;5201728;28;20025;-81
2022/01/30 06:33:12;;;;;;;20.90;3.40;;;;;;;4.88;94.24;100811.94;5198325;28;20435;-82
2022/01/30 06:35:42;;;;;;;20.02;2.88;;;;;;;4.91;92.96;100842.97;5198491;28;20036;-80
2022/01/30 06:38:13;;;;;;;16.95;2.83;;;;;;;4.92;91.97;100816.22;5198753;28;20040;-80
2022/01/30 06:40:43;;;;;;;19.10;3.13;;;;;;;4.95;91.07;100843.81;5199075;28;20017;-80
2022/01/30 06:43:13;;;;;;;12.15;2.58;;;;;;;4.91;90.66;100836.94;5199601;28;20517;-80
2022/01/30 06:45:44;;;;;;;24.02;3.08;;;;;;;4.93;90.58;100843.81;5199755;28;20067;-82
2022/01/30 06:48:18;;;;;;;15.02;2.05;;;;;;;4.93;90.43;100853.31;5195460;28;20066;-82
2022/01/30 06:50:49;;;;;;;22.30;2.75;;;;;;;4.93;90.60;100867.13;5199931;28;20376;-82
2022/01/30 06:53:19;;;;;;;17.88;2.90;;;;;;;4.95;90.39;100867.97;5187277;28;20036;-79
2022/01/30 06:55:49;;;;;;;21.20;3.20;;;;;;;4.99;90.66;100867.06;5200450;28;20029;-80
2022/01/30 06:58:20;;;;;;;21.85;3.63;;;;;;;5.01;91.08;100877.41;5200238;28;20124;-80
2022/01/30 07:00:50;;;;;;;21.85;3.10;;;;;;;5.03;91.47;100902.44;5200296;28;20033;-81
2022/01/30 07:03:21;;;;;;;35.08;3.70;;;;;;;5.06;91.14;100910.19;5200282;28;20048;-83
2022/01/30 07:05:51;;;;;;;24.42;2.92;;;;;;;5.10;91.51;100918.75;5200552;28;20079;-82
2022/01/30 07:08:21;;;;;;;19.63;3.70;;;;;;;5.06;91.55;100930.91;5200188;28;20491;-81
2022/01/30 07:10:52;;;;;;;17.75;2.90;;;;;;;5.08;91.62;100923.97;5200065;28;20099;-80
2022/01/30 07:13:22;;;;;;;15.75;3.38;;;;;;;5.09;92.19;100938.66;5200199;28;20057;-80
2022/01/30 07:15:53;;;;;;;22.73;3.33;;;;;;;5.15;92.49;100953.28;5200107;28;20045;-80
2022/01/30 07:18:23;;;;;;;22.00;4.07;;;;;;;5.06;92.73;100955.94;5199335;28;20033;-83
2022/01/30 07:20:53;;;;;;;20.23;3.00;;;;;;;5.13;92.25;100944.66;5200063;28;20380;-81
2022/01/30 07:23:23;;;;;;;21.40;3.40;;;;;;;5.07;92.09;100945.56;5199487;28;20040;-80
2022/01/30 07:25:54;;;;;;;30.05;3.55;;;;;;;5.13;92.15;100932.56;5199864;28;20034;-80
2022/01/30 07:28:24;;;;;;;25.90;3.55;;;;;;;5.12;91.88;100946.38;5200158;28;20034;-80
2022/01/30 07:30:55;;;;;;;22.25;3.53;;;;;;;5.12;91.19;100961.94;5198316;28;20302;-81
2022/01/30 07:33:26;;;;;;;17.15;2.80;;;;;;;5.13;91.78;100948.09;5199458;28;20439;-83
2022/01/30 07:35:57;;;;;;;21.35;3.35;;;;;;;5.12;92.15;100958.50;5199930;28;20450;-80
2022/01/30 07:38:28;;;;;;;31.58;3.83;;;;;;;5.21;91.50;100966.19;5189689;28;20091;-82
2022/01/30 07:40:58;;;;;;;28.55;4.00;;;;;;;5.17;91.39;100942.03;5199383;28;20037;-80
2022/01/30 07:43:30;;;;;;;29.27;3.50;;;;;;;5.27;91.11;100945.41;5199146;28;20030;-80
2022/01/30 07:46:03;;;;;;;22.27;3.33;;;;;;;5.26;90.15;100941.97;5199859;28;20136;-82
2022/01/30 07:48:34;;;;;;;27.38;4.05;;;;;;;5.24;90.12;100951.47;5195888;28;20052;-80
2022/01/30 07:51:04;;;;;;;23.63;4.03;;;;;;;5.29;89.60;100974.78;5198905;28;20056;-83
2022/01/30 07:53:35;;;;;;;21.52;2.92;;;;;;;5.25;89.70;100963.56;5199279;28;20060;-80
2022/01/30 07:56:05;;;;;;;25.83;3.42;;;;;;;5.23;90.13;100964.44;5198742;28;20045;-82
2022/01/30 07:58:36;;;;;;;28.30;3.67;;;;;;;5.23;89.20;100975.66;5201310;28;20037;-82
2022/01/30 08:01:06;;;;;;;22.85;3.22;;;;;;;5.29;89.94;101000.69;5202858;28;20037;-82
2022/01/30 08:03:36;;;;;;;29.20;3.95;;;;;;;5.26;89.54;101006.72;5202558;28;20029;-81
2022/01/30 08:06:07;;;;;;;31.02;3.83;;;;;;;5.30;89.48;101020.53;5203060;28;20034;-84
2022/01/30 08:08:37;;;;;;;22.23;3.78;;;;;;;5.32;89.78;101005.84;5204853;28;20435;-81
2022/01/30 08:11:09;;;;;;;27.73;3.38;;;;;;;5.31;90.03;101010.13;5204793;28;20049;-82
2022/01/30 08:13:39;;;;;;;27.08;3.83;;;;;;;5.31;89.28;101017.91;5205034;28;20077;-84
2022/01/30 08:16:09;;;;;;;18.77;3.20;;;;;;;5.36;89.63;101016.13;5204334;28;20442;-82
2022/01/30 08:18:40;;;;;;;24.35;4.00;;;;;;;5.34;89.14;101017.88;5204196;28;20033;-82
2022/01/30 08:21:10;;;;;;;28.17;4.32;;;;;;;5.43;89.05;101020.41;5204092;28;20033;-83
2022/01/30 08:23:41;;;;;;;33.20;4.80;;;;;;;5.47;88.67;101020.41;5204480;28;20037;-83
2022/01/30 08:26:11;;;;;;;20.40;3.53;;;;;;;5.55;87.34;101031.53;5204038;28;20033;-84
2022/01/30 08:28:41;;;;;;;26.20;4.07;;;;;;;5.53;86.83;101037.59;5203071;28;20059;-84
2022/01/30 08:31:12;;;;;;;24.92;3.70;;;;;;;5.49;86.62;101026.41;5203656;28;20083;-82
2022/01/30 08:33:42;;;;;;;23.70;3.38;;;;;;;5.63;85.75;101039.25;5204307;28;20172;-82
2022/01/30 08:36:13;;;;;;;21.35;3.25;;;;;;;5.67;83.44;101034.03;5203886;28;20087;-82
2022/01/30 08:38:43;;;;;;;21.02;3.35;;;;;;;5.71;83.47;101038.31;5203982;28;20040;-83
2022/01/30 08:41:13;;;;;;;25.25;3.50;;;;;;;5.73;82.97;101046.09;5203130;28;20025;-83
2022/01/30 08:43:43;;;;;;;24.83;3.47;;;;;;;5.77;82.82;101037.41;5187294;28;20045;-83
2022/01/30 08:46:15;;;;;;;26.55;4.10;;;;;;;5.81;83.50;101046.91;5204041;28;20031;-84
2022/01/30 08:48:45;;;;;;;22.92;3.35;;;;;;;5.79;83.66;101046.94;5184253;28;20093;-82
2022/01/30 08:51:15;;;;;;;19.10;2.88;;;;;;;5.75;83.71;101044.34;5203648;28;20583;-84
2022/01/30 08:53:46;;;;;;;23.17;3.30;;;;;;;5.75;83.16;101047.78;5193830;28;20041;-84
2022/01/30 08:56:16;;;;;;;19.70;3.17;;;;;;;5.81;83.89;101059.88;5204218;28;20561;-82
2022/01/30 08:58:46;;;;;;;22.48;3.42;;;;;;;5.81;83.86;101070.25;5203426;28;20055;-83
2022/01/30 09:01:17;;;;;;;24.80;3.70;;;;;;;5.75;82.88;101075.47;5203235;28;20041;-82
2022/01/30 09:03:47;;;;;;;15.77;3.20;;;;;;;5.82;82.63;101087.53;5203374;28;20070;-82
2022/01/30 09:06:17;;;;;;;24.95;3.78;;;;;;;5.79;81.57;101079.78;5203861;28;20033;-81
2022/01/30 09:08:47;;;;;;;20.10;3.40;;;;;;;5.83;80.86;101091.84;5201983;28;20042;-82
2022/01/30 09:11:18;;;;;;;19.35;3.33;;;;;;;5.82;81.16;101087.53;5202984;28;20025;-82
2022/01/30 09:13:48;;;;;;;27.42;4.07;;;;;;;5.93;79.68;101102.13;5202798;28;20451;-82
2022/01/30 09:16:18;;;;;;;20.90;3.05;;;;;;;6.06;79.44;101093.38;5203585;28;20025;-84
2022/01/30 09:18:49;;;;;;;26.10;3.70;;;;;;;6.05;77.90;101106.38;5202907;28;20052;-83
2022/01/30 09:21:20;;;;;;;23.55;3.05;;;;;;;5.99;77.61;101096.03;5203413;28;20112;-85
2022/01/30 09:23:52;;;;;;;32.25;5.15;;;;;;;6.02;77.57;101101.19;5202247;28;20174;-82
2022/01/30 09:26:23;;;;;;;34.92;6.28;;;;;;;6.05;78.06;101106.38;5201136;28;20044;-82
2022/01/30 09:28:53;;;;;;;33.90;5.57;;;;;;;6.02;78.17;101116.75;5201590;28;20037;-83
2022/01/30 09:31:23;;;;;;;25.40;3.88;;;;;;;6.06;76.73;101116.72;5201411;28;20033;-83
2022/01/30 09:33:53;;;;;;;26.77;2.97;;;;;;;6.02;77.06;101104.66;5187995;28;20037;-83
2022/01/30 09:36:24;;;;;;;24.17;3.55;;;;;;;6.01;77.65;101113.31;5201866;28;20033;-82
2022/01/30 09:38:54;;;;;;;16.90;3.40;;;;;;;6.07;77.39;101131.41;5203325;28;20038;-82
2022/01/30 09:41:25;;;;;;;17.83;3.08;;;;;;;6.22;76.53;101113.09;5201485;28;20025;-80
2022/01/30 09:44:00;;;;;;;27.98;3.85;;;;;;;6.40;75.95;101114.69;5220252;23;1082457;-77
2022/01/30 09:46:32;;;;;;;30.17;6.00;;;;;;;6.53;76.56;101124.91;5253285;28;20322;-78
2022/01/30 09:49:02;;;;;;;21.27;3.72;;;;;;;6.45;75.98;101125.88;5249463;28;20124;-78
2022/01/30 09:51:34;;;;;;;19.83;3.97;;;;;;;6.60;74.64;101134.34;5253028;28;20454;-77
2022/01/30 09:54:05;;;;;;;20.08;3.92;;;;;;;6.64;75.08;101124.78;5262612;28;20517;-77
2022/01/30 09:56:35;;;;;;;22.77;4.22;;;;;;;6.82;74.34;101119.38;5267601;28;20028;-78
2022/01/30 09:59:06;;;;;;;22.88;4.72;;;;;;;6.82;75.05;101112.47;5269815;28;20024;-78
2022/01/30 10:01:38;;;;;;;20.85;4.28;;;;;;;6.87;74.81;101112.38;5274861;28;20090;-78
2022/01/30 10:04:09;;;;;;;22.38;4.32;;;;;;;6.95;74.51;101123.56;5269138;28;20028;-78
2022/01/30 10:07:03;;;;;;;19.20;3.80;;;;;;;6.78;73.84;101122.91;5269499;28;20058;-77
2022/01/30 10:09:36;;;;;;;25.02;3.58;;;;;;;6.81;73.72;101128.06;5275840;28;20034;-78
2022/01/30 10:12:15;;;;;;;22.25;3.60;;;;;;;6.87;73.84;101112.38;5275670;28;20035;-78
2022/01/30 10:15:00;;;;;;;26.00;3.85;;;;;;;6.80;73.88;101110.75;5269529;28;20074;-78
2022/01/30 10:17:35;;;;;;;25.75;4.53;;;;;;;6.87;74.27;101118.47;5273504;28;20532;-78
2022/01/30 10:20:07;;;;;;;15.13;2.83;;;;;;;6.85;74.45;101119.34;5269299;28;20674;-78
2022/01/30 10:22:49;;;;;;;25.58;3.72;;;;;;;6.90;74.41;101102.00;5270864;28;20026;-77
2022/01/30 10:25:24;;;;;;;16.35;3.08;;;;;;;6.85;73.96;101114.16;5269686;28;20524;-78
2022/01/30 10:28:08;;;;;;;25.33;4.93;;;;;;;6.87;73.66;101112.38;5275611;28;20028;-78
2022/01/30 10:30:47;;;;;;;22.33;3.90;;;;;;;6.79;73.70;101103.84;5274566;28;20035;-78
2022/01/30 10:33:21;;;;;;;30.02;5.00;;;;;;;6.80;73.84;101116.78;5273005;28;20039;-78
2022/01/30 10:35:54;;;;;;;32.97;4.22;;;;;;;6.94;73.94;101130.50;5272508;28;20522;-78
2022/01/30 10:38:25;;;;;;;26.42;4.10;;;;;;;6.97;72.84;101134.81;5275400;28;20032;-77
2022/01/30 10:40:58;;;;;;;19.52;3.80;;;;;;;7.02;73.17;101128.66;5272097;28;20031;-78
2022/01/30 10:43:50;;;;;;;29.23;4.47;;;;;;;7.18;73.06;101137.13;5267114;28;20023;-77
2022/01/30 10:46:29;;;;;;;31.02;4.53;;;;;;;7.13;72.97;101146.72;5266980;28;20405;-78
2022/01/30 10:49:07;;;;;;;27.13;3.80;;;;;;;7.22;72.26;101144.00;5269228;28;20520;-78
2022/01/30 10:51:38;;;;;;;20.98;3.90;;;;;;;7.15;71.41;101139.78;5272570;28;20032;-78
2022/01/30 10:54:11;;;;;;;24.45;4.32;;;;;;;7.13;72.90;101136.34;5274994;28;20050;-78
2022/01/30 10:56:41;;;;;;;24.75;3.88;;;;;;;7.12;73.15;101140.66;5270065;28;20068;-78
2022/01/30 10:59:14;;;;;;;25.08;4.30;;;;;;;7.22;72.50;101138.78;5274828;28;20045;-78
2022/01/30 11:01:46;;;;;;;29.10;5.13;;;;;;;7.03;73.36;101151.19;5270781;28;20039;-78
2022/01/30 11:04:25;;;;;;;20.90;3.55;;;;;;;6.93;73.76;101138.31;5262745;28;20071;-77
2022/01/30 11:06:58;;;;;;;24.70;3.75;;;;;;;6.95;74.04;101146.94;5268277;28;20092;-77
2022/01/30 11:12:11;;;;;;;24.10;4.40;;;;;;;6.97;74.43;101156.44;5276087;28;20057;-78
2022/01/30 11:17:21;;;;;;;30.33;5.57;;;;;;;7.05;74.47;101164.13;5271505;28;20058;-77
2022/01/30 11:19:57;;;;;;;29.52;5.20;;;;;;;6.93;74.24;101174.69;5270816;28;20072;-77
2022/01/30 11:22:30;;;;;;;27.48;4.18;;;;;;;6.85;74.85;101168.72;5273187;28;20036;-77
2022/01/30 11:25:03;;;;;;;20.67;3.40;;;;;;;6.94;75.16;101197.19;5278034;28;20404;-77
2022/01/30 11:27:34;;;;;;;31.50;5.43;;;;;;;6.94;74.76;101187.66;5275713;28;20126;-78
2022/01/30 11:30:05;;;;;;;30.40;4.18;;;;;;;6.96;74.48;101204.06;5274403;28;20095;-77
2022/01/30 11:32:37;;;;;;;31.63;4.95;;;;;;;6.98;75.19;101191.09;5274582;28;20095;-77
2022/01/30 11:35:09;;;;;;;20.20;3.65;;;;;;;6.88;73.95;101186.84;5268275;28;20024;-77
2022/01/30 11:37:40;;;;;;;30.27;4.72;;;;;;;6.99;72.64;101185.00;5273005;28;20557;-77
2022/01/30 11:40:16;;;;;;;20.45;4.57;;;;;;;7.10;72.96;101177.97;5268033;28;20031;-78
2022/01/30 11:42:51;;;;;;;29.90;5.18;;;;;;;7.16;72.05;101183.94;5270327;28;20040;-77
2022/01/30 11:45:31;;;;;;;24.42;3.88;;;;;;;7.22;71.85;101177.78;5280039;28;20031;-77
2022/01/30 11:48:13;;;;;;;20.35;3.63;;;;;;;7.25;71.14;101189.00;5271341;28;20051;-77
2022/01/30 11:50:44;;;;;;;33.20;4.28;;;;;;;7.17;71.14;101180.47;5277276;28;20376;-78
2022/01/30 11:53:28;;;;;;;29.38;4.97;;;;;;;7.26;71.16;101193.34;5269673;28;20032;-77
2022/01/30 11:56:00;;;;;;;29.75;4.35;;;;;;;7.22;70.97;101205.50;5275863;28;20176;-77
2022/01/30 11:58:32;;;;;;;24.15;3.80;;;;;;;7.10;72.04;101188.34;5273998;28;20040;-78
2022/01/30 12:01:04;;;;;;;21.38;3.40;;;;;;;7.07;72.49;101193.59;5276725;28;20024;-77
2022/01/30 12:03:35;;;;;;;24.00;3.90;;;;;;;7.07;73.17;101204.00;5271553;28;20056;-77
2022/01/30 12:06:21;;;;;;;30.25;4.97;;;;;;;7.13;73.86;101190.91;5275458;28;20528;-78
2022/01/30 12:08:53;;;;;;;24.05;4.70;;;;;;;7.14;74.03;101206.47;5269272;28;20038;-78
2022/01/30 12:11:36;;;;;;;28.45;4.32;;;;;;;7.02;75.08;101203.16;5255871;28;20987;-78
2022/01/30 12:14:19;;;;;;;26.67;4.07;;;;;;;6.95;75.97;101204.13;5263457;28;20093;-78
2022/01/30 12:16:57;;;;;;;26.58;4.35;;;;;;;6.96;77.20;101218.81;5263875;28;20020;-77
2022/01/30 12:19:30;;;;;;;33.72;5.13;;;;;;;6.95;77.68;101206.72;5265445;28;20454;-78
2022/01/30 12:22:23;;;;;;;30.63;4.80;;;;;;;6.84;77.63;101218.94;5271076;28;20425;-77
2022/01/30 12:25:20;;;;;;;34.70;5.18;;;;;;;6.83;77.70;101199.03;5268974;28;20055;-77
2022/01/30 12:27:55;;;;;;;40.10;6.18;;;;;;;6.76;77.79;101207.78;5267439;28;20032;-78
2022/01/30 12:30:38;;;;;;;29.55;5.07;;;;;;;6.85;77.24;101192.97;5274085;28;20032;-77
2022/01/30 12:33:35;;;;;;;28.70;4.75;;;;;;;6.90;77.90;101196.34;5272434;28;20042;-78
2022/01/30 12:36:14;;;;;;;31.08;4.53;;;;;;;6.90;76.44;101200.72;5265841;28;20043;-78
2022/01/30 12:38:45;;;;;;;22.67;4.95;;;;;;;6.83;75.93;101188.66;5269289;28;20037;-78
2022/01/30 12:41:20;;;;;;;28.95;4.45;;;;;;;6.79;75.69;101190.41;5265890;28;20043;-77
2022/01/30 12:43:54;;;;;;;32.53;5.28;;;;;;;6.82;76.29;101192.13;5271879;28;20047;-77
2022/01/30 12:46:30;;;;;;;27.73;4.88;;;;;;;6.83;75.56;101199.03;5274766;28;20110;-77
2022/01/30 12:49:11;;;;;;;30.00;5.25;;;;;;;6.75;73.92;101209.50;5270446;28;20111;-78
2022/01/30 12:51:47;;;;;;;24.33;4.68;;;;;;;6.77;74.32;101197.34;5276075;28;20043;-77